Time;durP1;ratioP1;P1;durP2;ratioP2;P2;SDS_P1;SDS_P2;PMS_P1;PMS_P2;Temp;Humidity;BMP_temperature;BMP_pressure;BME280_temperature;BME280_humidity;BME280_pressure;Samples;Min_cycle;Max_cycle;Signal;HPM_P1;HPM_P2
2020/12/13 00:01:39;;;;;;;77.32;34.88;;;5.90;96.50;;;;;;5011532;28;20065;-69
2020/12/13 00:04:05;;;;;;;77.22;34.95;;;5.90;96.50;;;;;;5027133;28;20030;-69
2020/12/13 00:06:34;;;;;;;78.03;34.13;;;5.90;96.50;;;;;;5030941;28;20025;-69
2020/12/13 00:09:00;;;;;;;80.22;35.95;;;5.90;96.50;;;;;;5024184;28;20473;-69
2020/12/13 00:11:26;;;;;;;74.15;33.97;;;5.90;96.50;;;;;;5030834;28;20481;-69
2020/12/13 00:13:52;;;;;;;75.82;35.92;;;5.90;96.60;;;;;;5029588;28;20060;-69
2020/12/13 00:16:17;;;;;;;71.05;32.50;;;5.90;96.50;;;;;;5030310;28;20061;-68
2020/12/13 00:18:43;;;;;;;84.65;36.72;;;5.90;96.50;;;;;;5030024;28;20033;-68
2020/12/13 00:21:15;;;;;;;75.57;35.20;;;5.90;96.60;;;;;;5030613;28;20033;-68
2020/12/13 00:23:41;;;;;;;77.68;34.58;;;5.90;96.60;;;;;;5032456;28;20022;-69
2020/12/13 00:26:08;;;;;;;77.05;34.10;;;5.90;96.50;;;;;;5030002;28;20195;-70
2020/12/13 00:28:35;;;;;;;81.93;35.17;;;5.90;96.50;;;;;;5029683;28;20029;-70
2020/12/13 00:31:01;;;;;;;83.72;36.38;;;5.90;96.50;;;;;;5030145;28;20070;-70
2020/12/13 00:33:26;;;;;;;75.82;34.22;;;5.90;96.50;;;;;;5029865;28;20026;-70
2020/12/13 00:35:51;;;;;;;81.82;35.00;;;5.80;96.60;;;;;;5027394;28;20041;-70
2020/12/13 00:38:17;;;;;;;76.88;34.38;;;5.80;96.60;;;;;;5024828;28;20489;-70
2020/12/13 00:40:42;;;;;;;71.60;34.60;;;5.80;96.60;;;;;;5030236;28;20108;-70
2020/12/13 00:43:08;;;;;;;83.10;36.55;;;5.80;96.70;;;;;;5029424;28;20552;-69
2020/12/13 00:45:33;;;;;;;80.50;35.28;;;5.80;96.80;;;;;;5026084;28;20045;-69
2020/12/13 00:47:59;;;;;;;73.18;34.65;;;5.80;96.80;;;;;;5014895;28;20032;-69
2020/12/13 00:50:24;;;;;;;80.70;35.22;;;5.80;96.80;;;;;;5043053;28;20544;-69
2020/12/13 00:52:50;;;;;;;68.35;32.95;;;5.90;96.80;;;;;;5011617;28;20025;-69
2020/12/13 00:55:15;;;;;;;87.05;35.30;;;5.90;96.90;;;;;;5012439;28;20117;-68
2020/12/13 00:57:41;;;;;;;82.78;36.20;;;5.80;96.80;;;;;;5029359;28;20013;-69
2020/12/13 01:00:07;;;;;;;80.43;36.13;;;5.80;96.80;;;;;;5030258;28;20073;-68
2020/12/13 01:02:32;;;;;;;77.07;34.15;;;5.80;96.80;;;;;;5029732;28;20029;-68
2020/12/13 01:04:58;;;;;;;78.97;34.85;;;5.70;96.80;;;;;;5029949;28;20041;-68
2020/12/13 01:07:23;;;;;;;83.20;36.38;;;5.80;97.10;;;;;;5030800;28;20022;-69
2020/12/13 01:09:49;;;;;;;81.30;35.22;;;5.80;96.90;;;;;;5029152;28;20072;-69
2020/12/13 01:12:14;;;;;;;81.38;36.45;;;5.70;96.90;;;;;;5030696;28;20017;-67
2020/12/13 01:14:40;;;;;;;84.10;37.53;;;5.70;96.90;;;;;;5032126;28;20041;-67
2020/12/13 01:17:08;;;;;;;84.90;35.85;;;5.70;96.90;;;;;;5034055;28;20022;-68
2020/12/13 01:19:34;;;;;;;82.53;37.72;;;5.60;97.00;;;;;;5022064;28;20056;-67
2020/12/13 01:21:59;;;;;;;94.03;37.17;;;5.60;97.10;;;;;;5014317;28;20026;-68
2020/12/13 01:24:25;;;;;;;76.72;35.72;;;5.60;97.10;;;;;;5026479;28;20493;-68
2020/12/13 01:26:50;;;;;;;87.63;38.35;;;5.60;97.10;;;;;;5032913;28;20029;-68
2020/12/13 01:29:16;;;;;;;87.63;37.38;;;5.60;97.20;;;;;;5032159;28;20052;-68
2020/12/13 01:31:41;;;;;;;82.72;37.75;;;5.60;97.20;;;;;;5037347;28;20555;-69
2020/12/13 01:34:07;;;;;;;89.95;37.33;;;5.60;97.30;;;;;;5029857;28;20049;-68
2020/12/13 01:36:34;;;;;;;88.47;37.75;;;5.60;97.30;;;;;;5031976;28;20155;-68
2020/12/13 01:38:59;;;;;;;86.30;36.28;;;5.60;97.30;;;;;;5032844;28;20040;-68
2020/12/13 01:41:24;;;;;;;88.35;36.78;;;5.60;97.40;;;;;;5022082;28;20026;-68
2020/12/13 01:43:55;;;;;;;78.75;35.95;;;5.50;97.40;;;;;;5022370;28;20503;-68
2020/12/13 01:46:21;;;;;;;88.68;35.70;;;5.60;97.40;;;;;;5032016;28;20172;-68
2020/12/13 01:48:46;;;;;;;88.05;36.30;;;5.60;97.40;;;;;;5032479;28;20113;-69
2020/12/13 01:51:41;;;;;;;92.00;37.78;;;5.60;97.40;;;;;;5021877;28;20116;-68
2020/12/13 01:54:11;;;;;;;86.28;38.22;;;5.60;97.40;;;;;;5032294;28;20083;-69
2020/12/13 01:56:40;;;;;;;83.05;38.20;;;5.50;97.40;;;;;;5032549;28;20037;-68
2020/12/13 01:59:06;;;;;;;83.05;36.50;;;5.50;97.50;;;;;;5031970;28;20068;-68
2020/12/13 02:01:37;;;;;;;84.80;36.00;;;5.50;97.50;;;;;;5039522;28;20482;-68
2020/12/13 02:04:03;;;;;;;84.03;35.53;;;5.50;97.60;;;;;;5041054;28;20049;-68
2020/12/13 02:06:31;;;;;;;80.85;35.50;;;5.60;97.60;;;;;;5021975;28;20163;-68
2020/12/13 02:08:56;;;;;;;93.47;37.42;;;5.60;97.60;;;;;;5032237;28;20033;-68
2020/12/13 02:11:22;;;;;;;88.18;37.55;;;5.60;97.60;;;;;;5033420;28;20032;-68
2020/12/13 02:13:48;;;;;;;82.18;34.97;;;5.60;97.60;;;;;;5032016;28;20029;-69
2020/12/13 02:16:15;;;;;;;81.60;35.30;;;5.60;97.60;;;;;;5033004;28;20164;-68
2020/12/13 02:18:43;;;;;;;90.57;37.92;;;5.60;97.60;;;;;;5033404;28;20021;-69
2020/12/13 02:21:10;;;;;;;79.15;34.10;;;5.60;97.70;;;;;;5052582;28;20039;-68
2020/12/13 02:23:37;;;;;;;85.20;35.70;;;5.60;97.70;;;;;;5045436;28;20095;-68
2020/12/13 02:26:02;;;;;;;90.78;37.70;;;5.60;97.70;;;;;;5019401;28;20038;-68
2020/12/13 02:28:28;;;;;;;84.05;37.58;;;5.60;97.70;;;;;;5037871;28;20083;-68
2020/12/13 02:30:53;;;;;;;85.03;35.78;;;5.60;97.70;;;;;;5032037;28;20036;-69
2020/12/13 02:33:19;;;;;;;78.63;36.72;;;5.60;97.70;;;;;;5030703;28;20417;-68
2020/12/13 02:35:44;;;;;;;81.53;33.92;;;5.60;97.70;;;;;;5040935;28;20167;-68
2020/12/13 02:38:10;;;;;;;82.88;33.97;;;5.60;97.70;;;;;;5045274;28;20041;-68
2020/12/13 02:40:35;;;;;;;81.55;35.00;;;5.70;97.70;;;;;;5031150;28;20029;-68
2020/12/13 02:43:01;;;;;;;89.75;36.60;;;5.70;97.70;;;;;;5016548;28;20052;-68
2020/12/13 02:45:26;;;;;;;79.32;35.35;;;5.70;97.80;;;;;;5029209;28;20041;-69
2020/12/13 02:47:52;;;;;;;82.93;36.80;;;5.70;97.80;;;;;;5030628;28;20026;-69
2020/12/13 02:50:17;;;;;;;78.85;36.00;;;5.70;97.80;;;;;;5032135;28;20025;-68
2020/12/13 02:52:43;;;;;;;81.22;35.53;;;5.70;97.80;;;;;;5031182;28;20018;-68
2020/12/13 02:55:08;;;;;;;84.20;37.05;;;5.80;97.80;;;;;;5031257;28;20052;-68
2020/12/13 02:57:34;;;;;;;85.35;35.05;;;5.80;97.70;;;;;;5031288;28;20174;-69
2020/12/13 02:59:59;;;;;;;77.70;32.83;;;5.70;97.70;;;;;;5030931;28;20037;-68
2020/12/13 03:02:25;;;;;;;78.60;34.85;;;5.80;97.80;;;;;;5025130;28;20068;-68
2020/12/13 03:04:50;;;;;;;79.30;34.92;;;5.80;97.80;;;;;;5011746;28;20468;-68
2020/12/13 03:07:15;;;;;;;78.45;35.08;;;5.80;97.70;;;;;;5017781;28;20087;-68
2020/12/13 03:09:41;;;;;;;82.45;35.33;;;5.80;97.70;;;;;;5043377;28;20028;-68
2020/12/13 03:12:06;;;;;;;79.95;35.67;;;5.80;97.70;;;;;;5037469;28;20030;-68
2020/12/13 03:14:32;;;;;;;82.00;35.53;;;5.90;97.70;;;;;;5039059;28;20466;-68
2020/12/13 03:16:58;;;;;;;80.22;33.75;;;5.80;97.70;;;;;;5044983;28;20024;-68
2020/12/13 03:19:24;;;;;;;82.07;35.83;;;5.80;97.60;;;;;;5030989;28;20068;-68
2020/12/13 03:21:49;;;;;;;76.90;34.13;;;5.80;97.60;;;;;;5031008;28;20047;-68
2020/12/13 03:24:15;;;;;;;79.28;34.83;;;5.80;97.50;;;;;;5018619;28;20037;-68
2020/12/13 03:26:42;;;;;;;81.47;34.55;;;5.80;97.50;;;;;;5028395;28;20402;-68
2020/12/13 03:29:07;;;;;;;78.22;33.67;;;5.80;97.50;;;;;;5037790;28;20111;-68
2020/12/13 03:31:33;;;;;;;82.25;35.78;;;5.80;97.50;;;;;;5046088;28;20083;-68
2020/12/13 03:33:58;;;;;;;80.68;34.65;;;5.70;97.50;;;;;;5030117;28;20109;-68
2020/12/13 03:36:24;;;;;;;77.35;34.60;;;5.80;97.50;;;;;;5031232;28;20030;-68
2020/12/13 03:38:49;;;;;;;81.13;34.15;;;5.80;97.50;;;;;;5022123;28;20034;-68
2020/12/13 03:41:15;;;;;;;84.80;35.70;;;5.80;97.50;;;;;;5011028;28;20108;-68
2020/12/13 03:43:40;;;;;;;82.70;36.42;;;5.80;97.50;;;;;;5030117;28;20433;-68
2020/12/13 03:46:06;;;;;;;79.70;35.17;;;5.90;97.50;;;;;;5029395;28;20030;-68
2020/12/13 03:48:31;;;;;;;88.28;36.83;;;5.80;97.50;;;;;;5030681;28;20072;-68
2020/12/13 03:50:57;;;;;;;79.30;35.58;;;5.90;97.50;;;;;;5049599;28;20505;-68
2020/12/13 03:53:23;;;;;;;80.20;35.42;;;5.80;97.50;;;;;;5030246;28;20052;-68
2020/12/13 03:55:48;;;;;;;84.35;34.95;;;5.80;97.50;;;;;;5031386;28;20025;-68
2020/12/13 03:58:14;;;;;;;81.20;34.13;;;5.80;97.40;;;;;;5027665;28;20485;-69
2020/12/13 04:00:39;;;;;;;91.85;38.30;;;5.80;97.50;;;;;;5047842;28;20115;-69
2020/12/13 04:03:05;;;;;;;94.55;36.05;;;5.70;97.50;;;;;;5037812;28;20037;-68
2020/12/13 04:05:34;;;;;;;81.25;35.55;;;5.70;97.60;;;;;;5035480;28;20445;-68
2020/12/13 04:08:00;;;;;;;84.85;35.80;;;5.70;97.60;;;;;;5029544;28;20025;-68
2020/12/13 04:10:26;;;;;;;83.78;36.58;;;5.70;97.60;;;;;;5046470;28;20079;-68
2020/12/13 04:12:51;;;;;;;89.47;35.45;;;5.70;97.70;;;;;;5031459;28;20057;-69
2020/12/13 04:15:17;;;;;;;79.97;34.83;;;5.70;97.70;;;;;;5017011;28;20032;-68
2020/12/13 04:17:44;;;;;;;79.75;33.97;;;5.70;97.70;;;;;;5030170;28;20029;-68
2020/12/13 04:20:11;;;;;;;83.05;35.83;;;5.70;97.60;;;;;;5030107;28;20065;-69
2020/12/13 04:22:36;;;;;;;80.15;34.45;;;5.80;97.60;;;;;;5030005;28;20075;-68
2020/12/13 04:25:03;;;;;;;81.75;33.88;;;5.80;97.60;;;;;;5029870;28;20038;-69
2020/12/13 04:27:28;;;;;;;87.00;35.35;;;5.70;97.60;;;;;;5030792;28;20033;-68
2020/12/13 04:29:54;;;;;;;86.32;37.45;;;5.80;97.70;;;;;;5041420;28;20079;-69
2020/12/13 04:32:19;;;;;;;90.72;36.30;;;5.80;97.70;;;;;;5030273;28;20068;-69
2020/12/13 04:34:45;;;;;;;93.38;36.47;;;5.80;97.70;;;;;;5016543;28;20500;-69
2020/12/13 04:37:11;;;;;;;80.18;35.83;;;5.70;97.70;;;;;;5009938;28;20034;-68
2020/12/13 04:39:36;;;;;;;84.30;33.40;;;5.80;97.70;;;;;;5029834;28;20025;-69
2020/12/13 04:42:03;;;;;;;82.32;34.22;;;5.70;97.70;;;;;;5029976;28;20440;-68
2020/12/13 04:44:30;;;;;;;81.43;33.88;;;5.70;97.70;;;;;;5029533;28;20540;-69
2020/12/13 04:46:56;;;;;;;78.22;34.90;;;5.80;97.70;;;;;;5015597;28;20038;-69
2020/12/13 04:49:23;;;;;;;78.45;34.88;;;5.80;97.70;;;;;;5038604;28;20037;-69
2020/12/13 04:51:50;;;;;;;80.05;34.35;;;5.80;97.70;;;;;;5033559;28;20055;-69
2020/12/13 04:54:20;;;;;;;88.45;34.35;;;5.80;97.90;;;;;;5033422;28;20056;-68
2020/12/13 04:56:51;;;;;;;76.05;35.03;;;5.80;97.70;;;;;;5019292;28;20546;-68
2020/12/13 04:59:17;;;;;;;85.80;35.28;;;5.80;97.70;;;;;;5028596;28;20041;-68
2020/12/13 05:01:46;;;;;;;81.40;36.03;;;5.80;97.70;;;;;;5034093;28;20060;-68
2020/12/13 05:04:12;;;;;;;88.53;37.75;;;5.80;97.70;;;;;;5033141;28;20034;-68
2020/12/13 05:06:39;;;;;;;85.38;35.85;;;5.90;97.80;;;;;;5015457;28;20537;-68
2020/12/13 05:09:05;;;;;;;88.85;36.53;;;5.90;97.80;;;;;;5021968;28;20382;-68
2020/12/13 05:11:31;;;;;;;87.50;34.55;;;5.90;97.80;;;;;;5033470;28;20029;-68
2020/12/13 05:13:56;;;;;;;80.05;34.17;;;5.90;97.80;;;;;;5034635;28;20125;-68
2020/12/13 05:16:22;;;;;;;93.80;37.28;;;5.90;97.80;;;;;;5035865;28;20026;-68
2020/12/13 05:18:47;;;;;;;97.28;37.25;;;5.80;97.80;;;;;;5032933;28;20433;-68
2020/12/13 05:21:21;;;;;;;87.75;36.67;;;5.90;97.80;;;;;;5033328;28;20061;-68
2020/12/13 05:23:48;;;;;;;86.38;36.70;;;5.90;97.90;;;;;;5033052;28;20096;-68
2020/12/13 05:26:15;;;;;;;76.68;33.72;;;5.90;97.90;;;;;;5019182;28;20498;-69
2020/12/13 05:28:52;;;;;;;86.68;34.97;;;5.90;97.90;;;;;;5020890;28;20631;-69
2020/12/13 05:31:21;;;;;;;81.18;36.22;;;5.90;97.90;;;;;;5032983;28;20099;-69
2020/12/13 05:33:53;;;;;;;84.15;36.55;;;5.90;97.80;;;;;;5033024;28;20276;-69
2020/12/13 05:36:19;;;;;;;84.38;34.55;;;5.90;97.90;;;;;;5033151;28;20128;-69
2020/12/13 05:38:46;;;;;;;97.63;35.80;;;5.90;97.90;;;;;;5013677;28;20550;-69
2020/12/13 05:41:15;;;;;;;86.95;35.67;;;5.90;97.90;;;;;;5036012;28;20037;-69
2020/12/13 05:44:01;;;;;;;84.78;35.75;;;5.90;97.90;;;;;;5032463;28;20026;-69
2020/12/13 05:49:24;;;;;;;87.47;36.13;;;5.80;97.80;;;;;;5018532;28;20048;-68
2020/12/13 05:51:50;;;;;;;91.30;36.60;;;5.80;97.90;;;;;;5016071;28;20444;-69
2020/12/13 05:54:26;;;;;;;88.13;36.47;;;5.70;97.90;;;;;;5031638;28;20053;-69
2020/12/13 05:56:56;;;;;;;81.57;34.42;;;5.70;97.90;;;;;;5037142;28;20106;-68
2020/12/13 05:59:24;;;;;;;80.97;34.05;;;5.70;98.00;;;;;;5040070;28;20407;-68
2020/12/13 06:01:55;;;;;;;84.75;35.45;;;5.60;98.00;;;;;;5030921;28;20470;-69
2020/12/13 06:04:29;;;;;;;84.15;36.13;;;5.60;98.10;;;;;;5013208;28;20034;-68
2020/12/13 06:07:03;;;;;;;74.45;33.70;;;5.60;98.10;;;;;;5033232;28;20044;-69
2020/12/13 06:09:33;;;;;;;91.28;35.42;;;5.70;98.10;;;;;;5035873;28;20424;-69
2020/12/13 06:12:07;;;;;;;91.85;39.75;;;5.70;98.10;;;;;;5051324;28;20033;-68
2020/12/13 06:14:41;;;;;;;88.15;34.67;;;5.60;98.10;;;;;;5040017;28;20387;-69
2020/12/13 06:17:07;;;;;;;79.15;34.17;;;5.60;98.10;;;;;;5024698;28;20056;-68
2020/12/13 06:19:36;;;;;;;80.03;36.05;;;5.60;98.10;;;;;;5036122;28;20108;-68
2020/12/13 06:22:03;;;;;;;77.07;32.63;;;5.60;98.10;;;;;;5052774;28;20028;-68
2020/12/13 06:24:29;;;;;;;82.78;35.13;;;5.60;98.00;;;;;;5040144;28;20029;-68
2020/12/13 06:26:56;;;;;;;72.30;33.13;;;5.60;98.00;;;;;;5032660;28;20029;-68
2020/12/13 06:29:24;;;;;;;84.90;34.97;;;5.60;98.00;;;;;;5028428;28;20356;-68
2020/12/13 06:31:51;;;;;;;74.78;33.65;;;5.60;98.10;;;;;;5013127;28;20037;-68
2020/12/13 06:34:17;;;;;;;81.63;33.88;;;5.60;98.10;;;;;;5024382;28;20116;-68
2020/12/13 06:36:43;;;;;;;81.38;33.65;;;5.60;98.00;;;;;;5052558;28;20200;-67
2020/12/13 06:39:15;;;;;;;79.70;33.67;;;5.60;98.00;;;;;;5042340;28;20026;-69
2020/12/13 06:41:47;;;;;;;77.63;33.17;;;5.60;98.10;;;;;;5013012;28;20426;-70
2020/12/13 06:44:14;;;;;;;73.65;33.42;;;5.60;98.00;;;;;;5017817;28;20386;-73
2020/12/13 06:46:42;;;;;;;83.25;34.58;;;5.60;98.00;;;;;;5038268;28;20409;-68
2020/12/13 06:49:09;;;;;;;77.57;32.53;;;5.60;98.00;;;;;;5044133;28;20052;-69
2020/12/13 06:51:37;;;;;;;84.53;32.75;;;5.60;98.00;;;;;;5031238;28;20037;-68
2020/12/13 06:54:13;;;;;;;70.00;31.95;;;5.70;98.10;;;;;;5041894;28;20064;-71
2020/12/13 06:56:40;;;;;;;71.22;32.30;;;5.70;98.10;;;;;;5032544;28;20037;-71
2020/12/13 06:59:07;;;;;;;71.05;32.25;;;5.70;98.10;;;;;;5030674;28;20494;-70
2020/12/13 07:01:43;;;;;;;66.78;31.90;;;5.80;98.10;;;;;;5029002;28;20133;-70
2020/12/13 07:04:34;;;;;;;72.80;32.55;;;5.80;98.00;;;;;;5014561;28;20485;-70
2020/12/13 07:09:29;;;;;;;66.85;29.67;;;5.80;98.00;;;;;;5031091;28;20021;-70
2020/12/13 07:11:56;;;;;;;72.88;31.83;;;5.80;98.00;;;;;;5027415;28;20069;-70
2020/12/13 07:14:27;;;;;;;64.65;30.50;;;5.80;97.90;;;;;;5018894;28;20433;-70
2020/12/13 07:17:05;;;;;;;72.63;32.65;;;5.80;97.90;;;;;;5052051;28;20025;-70
2020/12/13 07:19:33;;;;;;;68.45;31.20;;;5.80;97.90;;;;;;5040842;28;20108;-70
2020/12/13 07:22:09;;;;;;;71.10;32.50;;;5.90;97.90;;;;;;5031893;28;20029;-70
2020/12/13 07:24:35;;;;;;;68.05;32.97;;;5.90;97.90;;;;;;5031606;28;20068;-71
2020/12/13 07:27:02;;;;;;;69.90;30.55;;;5.90;97.80;;;;;;5030946;28;20057;-70
2020/12/13 07:29:29;;;;;;;66.20;31.50;;;5.90;97.80;;;;;;5031049;28;20025;-71
2020/12/13 07:31:55;;;;;;;73.22;32.22;;;5.90;97.80;;;;;;5035463;28;20037;-71
2020/12/13 07:34:21;;;;;;;71.75;32.13;;;5.80;97.70;;;;;;5009654;28;20441;-72
2020/12/13 07:36:47;;;;;;;67.95;29.77;;;5.90;97.80;;;;;;5019277;28;20470;-71
2020/12/13 07:39:13;;;;;;;72.18;32.53;;;5.90;97.80;;;;;;5028237;28;20577;-72
2020/12/13 07:41:40;;;;;;;59.28;29.77;;;5.90;97.80;;;;;;5024961;28;20104;-70
2020/12/13 07:44:12;;;;;;;62.78;30.35;;;5.80;97.70;;;;;;5023317;28;20029;-70
2020/12/13 07:46:39;;;;;;;59.58;29.52;;;5.90;97.80;;;;;;5024685;28;20080;-70
2020/12/13 07:49:09;;;;;;;61.00;28.38;;;5.80;97.70;;;;;;5009105;28;20406;-70
2020/12/13 07:51:41;;;;;;;58.40;29.15;;;5.90;97.70;;;;;;5029503;28;20041;-70
2020/12/13 07:54:14;;;;;;;61.10;30.45;;;5.90;97.70;;;;;;5029141;28;20045;-71
2020/12/13 07:56:42;;;;;;;64.35;30.80;;;5.90;97.60;;;;;;5023885;28;20026;-71
2020/12/13 07:59:18;;;;;;;61.60;29.65;;;5.90;97.60;;;;;;5029305;28;20060;-70
2020/12/13 08:01:52;;;;;;;58.15;29.98;;;6.00;97.60;;;;;;5016442;28;20080;-71
2020/12/13 08:04:40;;;;;;;62.50;30.27;;;6.00;97.60;;;;;;5030911;28;20046;-71
2020/12/13 08:07:10;;;;;;;59.40;31.15;;;6.00;97.60;;;;;;5046894;28;20092;-70
2020/12/13 08:09:38;;;;;;;62.33;30.25;;;6.00;97.60;;;;;;5030921;28;20545;-71
2020/12/13 08:12:08;;;;;;;60.17;29.83;;;6.10;97.60;;;;;;5041473;28;20620;-71
2020/12/13 08:14:33;;;;;;;61.92;29.33;;;6.10;97.60;;;;;;5017671;28;20038;-71
2020/12/13 08:16:58;;;;;;;67.10;31.63;;;6.10;97.60;;;;;;5037682;28;20643;-71
2020/12/13 08:19:46;;;;;;;64.43;32.50;;;6.10;97.50;;;;;;5034203;28;20061;-71
2020/12/13 08:22:17;;;;;;;61.38;31.67;;;6.10;97.40;;;;;;5033447;28;20020;-71
2020/12/13 08:24:51;;;;;;;68.47;31.60;;;6.10;97.40;;;;;;5036859;28;20029;-71
2020/12/13 08:27:17;;;;;;;63.08;31.60;;;6.00;97.40;;;;;;5023468;28;20040;-71
2020/12/13 08:29:43;;;;;;;58.70;30.17;;;6.00;97.40;;;;;;5045198;28;20083;-70
2020/12/13 08:32:13;;;;;;;62.83;29.67;;;6.10;97.40;;;;;;5021544;28;20068;-70
2020/12/13 08:34:38;;;;;;;60.13;31.05;;;6.10;97.40;;;;;;5021429;28;20040;-71
2020/12/13 08:37:04;;;;;;;64.75;31.92;;;6.10;97.40;;;;;;5043437;28;20041;-70
2020/12/13 08:39:32;;;;;;;63.72;31.27;;;6.10;97.40;;;;;;5038941;28;20196;-70
2020/12/13 08:42:00;;;;;;;65.20;31.98;;;6.10;97.30;;;;;;5044314;28;20033;-70
2020/12/13 08:44:30;;;;;;;66.15;32.13;;;6.10;97.20;;;;;;5041844;28;20106;-70
2020/12/13 08:46:58;;;;;;;60.85;30.08;;;6.10;97.20;;;;;;5037605;28;20135;-71
2020/12/13 08:49:25;;;;;;;66.28;30.33;;;6.10;97.20;;;;;;5041705;28;20036;-70
2020/12/13 08:51:51;;;;;;;58.83;30.02;;;6.00;97.20;;;;;;5025301;28;20059;-70
2020/12/13 08:54:16;;;;;;;57.40;29.20;;;6.00;97.30;;;;;;5038383;28;20497;-70
2020/12/13 08:56:42;;;;;;;64.20;31.35;;;6.00;97.30;;;;;;5042716;28;20103;-70
2020/12/13 08:59:08;;;;;;;64.43;33.25;;;6.00;97.30;;;;;;5042093;28;20037;-70
2020/12/13 09:01:38;;;;;;;60.53;29.98;;;6.00;97.30;;;;;;5036880;28;20036;-70
2020/12/13 09:04:20;;;;;;;61.60;31.48;;;6.00;97.30;;;;;;5038166;28;20105;-70
2020/12/13 09:06:57;;;;;;;57.95;29.45;;;5.90;97.20;;;;;;5043046;28;20112;-70
2020/12/13 09:09:28;;;;;;;61.72;30.80;;;5.90;97.30;;;;;;5035351;28;20021;-70
2020/12/13 09:11:53;;;;;;;62.17;30.85;;;6.00;97.40;;;;;;5037713;28;20033;-70
2020/12/13 09:14:45;;;;;;;62.03;31.73;;;6.00;97.40;;;;;;5038361;28;20055;-70
2020/12/13 09:17:11;;;;;;;60.00;29.95;;;6.10;97.40;;;;;;5015612;28;20033;-70
2020/12/13 09:19:50;;;;;;;56.38;31.13;;;6.10;97.40;;;;;;5038595;28;20041;-70
2020/12/13 09:22:22;;;;;;;58.15;29.67;;;6.10;97.30;;;;;;5033324;28;20037;-70
2020/12/13 09:24:49;;;;;;;54.25;28.15;;;6.10;97.20;;;;;;5032446;28;20048;-70
2020/12/13 09:27:18;;;;;;;54.15;28.67;;;6.10;97.20;;;;;;5015863;28;20381;-70
2020/12/13 09:29:48;;;;;;;58.00;28.30;;;6.20;97.20;;;;;;5032189;28;20055;-70
2020/12/13 09:32:14;;;;;;;56.72;29.15;;;6.20;97.00;;;;;;5041639;28;20033;-73
2020/12/13 09:34:41;;;;;;;56.05;28.98;;;6.20;97.10;;;;;;5031875;28;20033;-70
2020/12/13 09:37:11;;;;;;;55.78;28.33;;;6.20;97.00;;;;;;5030572;28;20446;-71
2020/12/13 09:39:37;;;;;;;55.78;29.10;;;6.20;97.10;;;;;;5032996;28;20051;-71
2020/12/13 09:42:04;;;;;;;59.40;30.60;;;6.20;97.10;;;;;;5030391;28;20085;-70
2020/12/13 09:44:30;;;;;;;53.83;27.88;;;6.30;97.10;;;;;;5048883;28;20037;-71
2020/12/13 09:47:00;;;;;;;57.10;30.88;;;6.20;97.10;;;;;;5024966;28;20034;-71
2020/12/13 09:49:27;;;;;;;58.50;29.45;;;6.30;97.10;;;;;;5043239;28;20065;-71
2020/12/13 09:51:59;;;;;;;50.10;26.98;;;6.40;97.10;;;;;;5039637;28;20327;-70
2020/12/13 09:54:26;;;;;;;56.88;28.77;;;6.40;97.00;;;;;;5043123;28;20049;-71
2020/12/13 09:56:52;;;;;;;59.92;28.98;;;6.50;96.90;;;;;;5035250;28;20056;-71
2020/12/13 09:59:18;;;;;;;53.53;29.58;;;6.50;96.80;;;;;;5044442;28;20052;-71
2020/12/13 10:01:43;;;;;;;51.28;27.25;;;6.50;96.80;;;;;;5038042;28;20021;-70
2020/12/13 10:04:09;;;;;;;49.67;26.98;;;6.60;96.80;;;;;;5049242;28;20497;-70
2020/12/13 10:09:19;;;;;;;51.85;27.73;;;6.60;96.70;;;;;;5050667;28;20044;-70
2020/12/13 10:11:45;;;;;;;50.40;26.75;;;6.70;96.70;;;;;;5016015;28;20041;-70
2020/12/13 10:14:12;;;;;;;48.90;26.13;;;6.70;96.60;;;;;;5034032;28;20116;-70
2020/12/13 10:16:39;;;;;;;49.38;27.00;;;6.70;96.60;;;;;;5036459;28;20029;-71
2020/12/13 10:19:05;;;;;;;53.42;28.90;;;6.80;96.60;;;;;;5028655;28;20061;-70
2020/12/13 10:21:32;;;;;;;51.53;27.85;;;6.80;96.50;;;;;;5022442;28;20060;-70
2020/12/13 10:23:58;;;;;;;50.80;27.83;;;6.80;96.50;;;;;;5034484;28;20026;-70
2020/12/13 10:26:27;;;;;;;50.33;26.50;;;6.90;96.50;;;;;;5030086;28;20037;-70
2020/12/13 10:28:54;;;;;;;51.08;27.08;;;6.90;96.50;;;;;;5033077;28;20438;-70
2020/12/13 10:31:26;;;;;;;55.15;29.67;;;7.00;96.50;;;;;;5037898;28;20037;-70
2020/12/13 10:33:52;;;;;;;50.33;26.65;;;7.00;96.40;;;;;;5015619;28;20433;-70
2020/12/13 10:36:17;;;;;;;51.33;28.27;;;7.00;96.30;;;;;;5030131;28;20013;-70
2020/12/13 10:38:43;;;;;;;53.70;28.33;;;7.10;96.20;;;;;;5033037;28;20195;-70
2020/12/13 10:41:09;;;;;;;51.78;26.70;;;7.10;96.20;;;;;;5024966;28;20028;-70
2020/12/13 10:43:36;;;;;;;52.47;27.48;;;7.10;96.20;;;;;;5046109;28;20374;-70
2020/12/13 10:46:03;;;;;;;56.17;28.60;;;7.10;96.10;;;;;;5022225;28;20065;-70
2020/12/13 10:48:29;;;;;;;55.95;29.15;;;7.10;96.10;;;;;;5030875;28;20079;-70
2020/12/13 10:50:55;;;;;;;53.47;28.83;;;7.20;96.00;;;;;;5024805;28;20112;-71
2020/12/13 10:53:20;;;;;;;55.50;29.05;;;7.20;96.00;;;;;;5013062;28;20371;-71
2020/12/13 10:55:45;;;;;;;57.90;30.23;;;7.20;96.00;;;;;;5029643;28;20043;-71
2020/12/13 10:58:11;;;;;;;57.03;30.48;;;7.20;95.90;;;;;;5032598;28;20036;-71
2020/12/13 11:00:36;;;;;;;62.75;31.85;;;7.20;95.90;;;;;;5031205;28;20021;-71
2020/12/13 11:03:02;;;;;;;55.83;29.27;;;7.20;95.70;;;;;;5032654;28;20037;-80
2020/12/13 11:05:28;;;;;;;56.15;30.98;;;7.20;95.80;;;;;;5031582;28;20067;-70
2020/12/13 11:07:53;;;;;;;53.42;30.17;;;7.20;95.80;;;;;;5032478;28;20036;-71
2020/12/13 11:10:19;;;;;;;58.17;30.48;;;7.20;95.80;;;;;;5032258;28;20467;-69
2020/12/13 11:12:44;;;;;;;56.10;28.92;;;7.20;95.80;;;;;;5038804;28;20029;-68
2020/12/13 11:15:10;;;;;;;54.42;28.85;;;7.20;95.70;;;;;;4998169;28;20022;-72
2020/12/13 11:17:35;;;;;;;60.70;29.52;;;7.20;95.60;;;;;;5023181;28;20116;-74
2020/12/13 11:20:03;;;;;;;53.03;27.95;;;7.20;95.60;;;;;;5011434;28;20120;-72
2020/12/13 11:22:29;;;;;;;55.88;27.95;;;7.10;95.50;;;;;;5026358;28;20056;-70
2020/12/13 11:24:54;;;;;;;52.75;27.75;;;7.10;95.60;;;;;;5034290;28;20055;-70
2020/12/13 11:27:20;;;;;;;55.25;28.70;;;7.10;95.60;;;;;;5031873;28;20029;-72
2020/12/13 11:29:45;;;;;;;54.25;29.40;;;7.10;95.70;;;;;;5031326;28;20524;-70
2020/12/13 11:32:11;;;;;;;46.85;26.25;;;7.10;95.80;;;;;;5031781;28;20029;-71
2020/12/13 11:34:36;;;;;;;51.10;28.25;;;7.20;95.80;;;;;;5030276;28;22453;-71
2020/12/13 11:37:05;;;;;;;56.33;29.02;;;7.20;95.70;;;;;;5033123;28;20018;-72
2020/12/13 11:39:31;;;;;;;58.67;29.48;;;7.20;95.70;;;;;;5044615;28;20047;-71
2020/12/13 11:42:00;;;;;;;52.35;28.67;;;7.30;95.70;;;;;;5032447;28;20021;-71
2020/12/13 11:44:26;;;;;;;55.85;29.33;;;7.30;95.70;;;;;;5042836;28;20031;-71
2020/12/13 11:46:52;;;;;;;51.22;28.20;;;7.30;95.60;;;;;;5038394;28;20037;-71
2020/12/13 11:49:18;;;;;;;53.88;29.35;;;7.40;95.70;;;;;;5034812;28;20017;-72
2020/12/13 11:51:43;;;;;;;57.85;28.95;;;7.50;95.60;;;;;;5041626;28;20028;-72
2020/12/13 11:54:09;;;;;;;52.35;28.48;;;7.50;95.60;;;;;;5032646;28;20126;-73
2020/12/13 11:56:35;;;;;;;51.63;28.67;;;7.60;95.50;;;;;;5037202;28;20079;-72
2020/12/13 11:59:01;;;;;;;52.33;28.15;;;7.60;95.30;;;;;;5031781;28;20424;-73
2020/12/13 12:01:26;;;;;;;51.97;28.10;;;7.60;95.30;;;;;;5030872;28;20029;-71
2020/12/13 12:03:52;;;;;;;48.80;26.80;;;7.60;95.20;;;;;;5030807;28;20013;-71
2020/12/13 12:06:17;;;;;;;51.22;27.38;;;7.70;95.20;;;;;;5038767;28;20136;-71
2020/12/13 12:08:45;;;;;;;53.15;27.20;;;7.70;95.20;;;;;;5032345;28;20028;-71
2020/12/13 12:11:16;;;;;;;55.42;28.25;;;7.70;95.20;;;;;;5034971;28;20030;-73
2020/12/13 12:13:42;;;;;;;50.75;27.98;;;7.70;95.20;;;;;;5023152;28;20024;-74
2020/12/13 12:16:07;;;;;;;48.78;27.30;;;7.80;95.20;;;;;;5029070;28;20397;-72
2020/12/13 12:18:34;;;;;;;52.75;29.13;;;7.80;95.00;;;;;;5028778;28;20156;-70
2020/12/13 12:20:59;;;;;;;52.00;28.02;;;7.90;95.00;;;;;;5048325;28;20033;-71
2020/12/13 12:23:25;;;;;;;54.97;29.98;;;7.80;94.90;;;;;;5026293;28;20045;-74
2020/12/13 12:25:51;;;;;;;54.40;29.50;;;7.80;94.80;;;;;;5023064;28;20046;-72
2020/12/13 12:28:17;;;;;;;50.15;28.52;;;7.90;94.80;;;;;;5029154;28;20029;-72
2020/12/13 12:30:43;;;;;;;50.15;28.83;;;7.90;94.80;;;;;;5033208;28;20041;-72
2020/12/13 12:33:09;;;;;;;52.28;28.95;;;7.90;94.70;;;;;;5033211;28;20104;-70
2020/12/13 12:35:34;;;;;;;50.65;29.10;;;7.90;94.70;;;;;;5029334;28;20168;-70
2020/12/13 12:38:00;;;;;;;50.63;28.55;;;7.90;94.70;;;;;;5027219;28;20108;-71
2020/12/13 12:40:25;;;;;;;52.53;29.58;;;7.90;94.70;;;;;;5038321;28;20493;-71
2020/12/13 12:42:52;;;;;;;52.65;28.52;;;7.90;94.70;;;;;;5031830;28;20028;-70
2020/12/13 12:45:17;;;;;;;62.45;31.90;;;8.00;94.80;;;;;;5036735;28;20029;-71